createdAt,value
2023-03-09T00:01:32.346Z,96550.59
2023-03-09T00:04:01.002Z,96550.47
2023-03-09T00:06:28.433Z,96551.03
2023-03-09T00:08:55.649Z,96528.75
2023-03-09T00:11:22.566Z,96560.53
2023-03-09T00:13:50.803Z,96545.72
2023-03-09T00:16:25.025Z,96555.78
2023-03-09T00:18:53.466Z,96552.38
2023-03-09T00:21:41.901Z,96576.38
2023-03-09T00:24:17.420Z,96589.56
2023-03-09T00:26:50.927Z,96619.31
2023-03-09T00:29:18.318Z,96598.59
2023-03-09T00:31:45.887Z,96627.50
2023-03-09T00:34:14.954Z,96633.22
2023-03-09T00:36:41.914Z,96619.66
2023-03-09T00:39:09.138Z,96648.00
2023-03-09T00:41:36.077Z,96639.81
2023-03-09T00:44:04.485Z,96638.84
2023-03-09T00:46:32.728Z,96648.13
2023-03-09T00:48:59.688Z,96649.34
2023-03-09T00:51:27.460Z,96660.41
2023-03-09T00:53:56.786Z,96673.50
2023-03-09T00:56:27.135Z,96675.13
2023-03-09T00:58:55.273Z,96668.88
2023-03-09T01:01:22.167Z,96676.13
2023-03-09T01:03:49.778Z,96674.06
2023-03-09T01:06:17.466Z,96674.03
2023-03-09T01:08:46.542Z,96648.91
2023-03-09T01:11:15.951Z,96660.38
2023-03-09T01:13:43.522Z,96683.69
2023-03-09T01:16:10.534Z,96677.28
2023-03-09T01:18:37.584Z,96691.69
2023-03-09T01:21:04.930Z,96704.28
2023-03-09T01:23:31.877Z,96709.19
2023-03-09T01:25:58.893Z,96713.03
2023-03-09T01:28:25.844Z,96700.78
2023-03-09T01:30:52.752Z,96703.59
2023-03-09T01:33:19.630Z,96702.88
2023-03-09T01:35:46.566Z,96705.47
2023-03-09T01:38:13.780Z,96697.81
2023-03-09T01:40:40.718Z,96687.53
2023-03-09T01:43:36.132Z,96706.28
2023-03-09T01:46:21.443Z,96713.91
2023-03-09T01:49:37.584Z,96714.06
2023-03-09T01:52:15.351Z,96689.19
2023-03-09T01:54:50.691Z,96708.25
2023-03-09T01:57:55.256Z,96718.97
2023-03-09T02:00:25.755Z,96676.91
2023-03-09T02:03:00.104Z,96698.06
2023-03-09T02:05:44.325Z,96698.28
2023-03-09T02:08:12.907Z,96725.50
2023-03-09T02:10:47.144Z,96718.84
2023-03-09T02:13:19.510Z,96754.84
2023-03-09T02:15:46.542Z,96753.78
2023-03-09T02:18:13.888Z,96676.47
2023-03-09T02:20:46.490Z,96671.97
2023-03-09T02:23:31.411Z,96642.28
2023-03-09T02:26:34.312Z,96679.69
2023-03-09T02:29:02.285Z,96667.66
2023-03-09T02:31:29.374Z,96704.81
2023-03-09T02:33:56.253Z,96690.97
2023-03-09T02:36:24.921Z,96687.91
2023-03-09T02:38:51.784Z,96692.28
2023-03-09T02:41:20.679Z,96700.19
2023-03-09T02:43:53.985Z,96690.56
2023-03-09T02:46:21.022Z,96712.03
2023-03-09T02:48:48.072Z,96675.63
2023-03-09T02:51:14.915Z,96689.13
2023-03-09T02:53:42.000Z,96701.41
2023-03-09T02:56:09.301Z,96677.50
2023-03-09T02:58:36.236Z,96688.94
2023-03-09T03:01:03.179Z,96711.19
2023-03-09T03:03:30.098Z,96727.22
2023-03-09T03:05:58.458Z,96730.78
2023-03-09T03:08:36.086Z,96736.44
2023-03-09T03:11:04.690Z,96725.78
2023-03-09T03:13:31.510Z,96738.34
2023-03-09T03:16:03.260Z,96731.97
2023-03-09T03:18:30.816Z,96771.41
2023-03-09T03:20:57.674Z,96766.34
2023-03-09T03:23:24.971Z,96787.38
2023-03-09T03:25:51.913Z,96784.28
2023-03-09T03:28:18.869Z,96786.56
2023-03-09T03:30:52.430Z,96813.44
2023-03-09T03:33:19.391Z,96809.44
2023-03-09T03:35:46.972Z,96805.84
2023-03-09T03:38:13.827Z,96839.66
2023-03-09T03:40:40.749Z,96859.19
2023-03-09T03:43:07.798Z,96877.09
2023-03-09T03:45:34.677Z,96868.28
2023-03-09T03:48:01.576Z,96885.56
2023-03-09T03:50:28.417Z,96884.03
2023-03-09T03:52:55.300Z,96874.28
2023-03-09T03:55:22.136Z,96868.75
2023-03-09T03:57:49.106Z,96891.06
2023-03-09T04:00:19.125Z,96864.09
2023-03-09T04:02:46.326Z,96900.13
2023-03-09T04:05:13.321Z,96917.06
2023-03-09T04:07:40.132Z,96927.75
2023-03-09T04:10:08.254Z,96930.78
2023-03-09T04:12:35.415Z,96926.69
2023-03-09T04:15:02.193Z,96914.97
2023-03-09T04:17:29.099Z,96918.03
2023-03-09T04:19:55.925Z,96929.75
2023-03-09T04:22:23.518Z,96944.00
2023-03-09T04:24:50.552Z,96961.75
2023-03-09T04:27:17.571Z,96946.09
2023-03-09T04:29:44.480Z,96949.41
2023-03-09T04:32:11.368Z,96979.84
2023-03-09T04:34:38.227Z,96995.38
2023-03-09T04:37:05.113Z,96962.50
2023-03-09T04:39:31.912Z,96998.34
2023-03-09T04:41:58.735Z,97004.78
2023-03-09T04:44:25.559Z,97020.06
2023-03-09T04:46:52.354Z,97017.47
2023-03-09T04:49:19.242Z,97027.34
2023-03-09T04:51:46.110Z,97035.22
2023-03-09T04:54:12.932Z,97013.94
2023-03-09T04:56:39.737Z,97042.66
2023-03-09T04:59:06.574Z,97047.94
2023-03-09T05:01:33.589Z,97069.81
2023-03-09T05:04:00.446Z,97053.69
2023-03-09T05:06:27.239Z,97056.41
2023-03-09T05:08:54.086Z,97087.34
2023-03-09T05:11:20.889Z,97091.34
2023-03-09T05:13:48.519Z,97089.22
2023-03-09T05:16:16.344Z,97074.03
2023-03-09T05:18:44.551Z,97096.16
2023-03-09T05:21:13.116Z,97116.38
2023-03-09T05:23:39.957Z,97120.16
2023-03-09T05:26:08.613Z,97117.88
2023-03-09T05:28:39.395Z,97127.31
2023-03-09T05:31:14.756Z,97128.22
2023-03-09T05:33:41.700Z,97127.56
2023-03-09T05:36:23.135Z,97142.13
2023-03-09T05:38:51.519Z,97129.53
2023-03-09T05:41:20.546Z,97090.44
2023-03-09T05:43:47.569Z,97123.31
2023-03-09T05:46:17.305Z,97157.41
2023-03-09T05:48:47.516Z,97148.09
2023-03-09T05:51:14.683Z,97167.03
2023-03-09T05:53:41.975Z,97179.88
2023-03-09T05:56:12.130Z,97164.94
2023-03-09T05:58:39.357Z,97184.22
2023-03-09T06:01:16.965Z,97165.88
2023-03-09T06:03:43.802Z,97184.22
2023-03-09T06:06:10.871Z,97182.34
2023-03-09T06:08:37.716Z,97197.66
2023-03-09T06:11:04.642Z,97190.56
2023-03-09T06:13:31.472Z,97201.38
2023-03-09T06:15:58.404Z,97205.97
2023-03-09T06:18:27.126Z,97216.91
2023-03-09T06:20:53.956Z,97219.78
2023-03-09T06:23:20.755Z,97214.22
2023-03-09T06:25:48.245Z,97222.69
2023-03-09T06:28:15.142Z,97231.50
2023-03-09T06:30:41.983Z,97234.91
2023-03-09T06:33:08.923Z,97233.19
2023-03-09T06:35:36.557Z,97223.16
2023-03-09T06:38:04.148Z,97228.03
2023-03-09T06:40:31.276Z,97229.22
2023-03-09T06:42:58.422Z,97225.66
2023-03-09T06:45:25.944Z,97237.66
2023-03-09T06:47:57.698Z,97246.81
2023-03-09T06:50:27.741Z,97247.75
2023-03-09T06:52:54.649Z,97245.84
2023-03-09T06:55:22.142Z,97218.84
2023-03-09T06:57:49.355Z,97253.34
2023-03-09T07:00:17.121Z,97237.41
2023-03-09T07:02:44.397Z,97248.25
2023-03-09T07:05:11.510Z,97266.44
2023-03-09T07:07:38.425Z,97253.41
2023-03-09T07:10:06.485Z,97269.78
2023-03-09T07:12:33.407Z,97268.09
2023-03-09T07:15:00.295Z,97282.06
2023-03-09T07:17:27.713Z,97281.59
2023-03-09T07:19:54.630Z,97263.69
2023-03-09T07:22:21.958Z,97298.38
2023-03-09T07:24:48.891Z,97288.91
2023-03-09T07:27:16.042Z,97297.09
2023-03-09T07:29:42.943Z,97311.50
2023-03-09T07:32:10.270Z,97281.69
2023-03-09T07:34:37.432Z,97312.34
2023-03-09T07:37:04.890Z,97314.31
2023-03-09T07:39:32.004Z,97301.03
2023-03-09T07:41:58.835Z,97317.22
2023-03-09T07:44:25.689Z,97301.28
2023-03-09T07:46:52.581Z,97305.53
2023-03-09T07:49:19.645Z,97319.88
2023-03-09T07:51:46.625Z,97331.53
2023-03-09T07:54:13.786Z,97330.13
2023-03-09T07:56:40.602Z,97336.97
2023-03-09T07:59:07.825Z,97339.84
2023-03-09T08:01:34.701Z,97348.09
2023-03-09T08:04:01.600Z,97337.97
2023-03-09T08:06:28.717Z,97357.31
2023-03-09T08:08:55.898Z,97360.50
2023-03-09T08:11:24.011Z,97372.06
2023-03-09T08:14:02.340Z,97370.88
2023-03-09T08:16:31.131Z,97375.56
2023-03-09T08:18:58.797Z,97379.94
2023-03-09T08:21:26.407Z,97385.72
2023-03-09T08:23:53.579Z,97368.88
2023-03-09T08:26:25.348Z,97386.31
2023-03-09T08:28:53.266Z,97372.38
2023-03-09T08:31:20.258Z,97408.72
2023-03-09T08:33:47.433Z,97408.50
2023-03-09T08:36:18.271Z,97403.03
2023-03-09T08:38:47.233Z,97405.84
2023-03-09T08:41:14.651Z,97414.03
2023-03-09T08:43:41.484Z,97438.31
2023-03-09T08:46:09.104Z,97429.47
2023-03-09T08:48:36.198Z,97409.28
2023-03-09T08:51:07.063Z,97439.91
2023-03-09T08:53:34.860Z,97449.84
2023-03-09T08:56:10.465Z,97441.44
2023-03-09T08:58:37.661Z,97442.66
2023-03-09T09:01:09.387Z,97457.56
2023-03-09T09:03:37.256Z,97450.44
2023-03-09T09:06:09.654Z,97463.09
2023-03-09T09:08:36.869Z,97464.75
2023-03-09T09:11:15.609Z,97456.94
2023-03-09T09:13:43.027Z,97492.50
2023-03-09T09:16:11.863Z,97464.06
2023-03-09T09:18:41.389Z,97486.56
2023-03-09T09:21:11.732Z,97483.66
2023-03-09T09:23:41.183Z,97487.44
2023-03-09T09:26:09.345Z,97493.50
2023-03-09T09:28:36.161Z,97507.88
2023-03-09T09:31:05.211Z,97515.06
2023-03-09T09:33:34.403Z,97531.09
2023-03-09T09:36:10.103Z,97511.44
2023-03-09T09:38:36.966Z,97528.03
2023-03-09T09:41:11.273Z,97540.88
2023-03-09T09:43:39.602Z,97530.69
2023-03-09T09:46:15.616Z,97530.38
2023-03-09T09:48:44.859Z,97534.84
2023-03-09T09:51:41.845Z,97537.31
2023-03-09T09:54:33.097Z,97540.25
2023-03-09T09:57:11.167Z,97541.91
2023-03-09T09:59:54.723Z,97527.53
2023-03-09T10:02:53.533Z,97532.13
2023-03-09T10:05:40.992Z,97551.38
2023-03-09T10:08:42.754Z,97548.28
2023-03-09T10:11:34.142Z,97549.94
2023-03-09T10:14:24.340Z,97561.63
2023-03-09T10:17:08.165Z,97556.06
2023-03-09T10:19:41.758Z,97544.44
2023-03-09T10:22:15.257Z,97565.16
2023-03-09T10:24:51.547Z,97569.78
2023-03-09T10:27:58.978Z,97576.84
2023-03-09T10:30:48.476Z,97561.00
2023-03-09T10:33:43.812Z,97564.56
2023-03-09T10:36:31.125Z,97574.88
2023-03-09T10:39:15.775Z,97570.16
2023-03-09T10:41:43.244Z,97555.50
2023-03-09T10:44:16.869Z,97548.34
2023-03-09T10:47:03.016Z,97569.56
2023-03-09T10:49:30.926Z,97535.84
2023-03-09T10:52:05.336Z,97543.41
2023-03-09T10:54:41.256Z,97539.22
2023-03-09T10:57:32.338Z,97522.47
2023-03-09T11:00:14.868Z,97545.22
2023-03-09T11:02:54.990Z,97544.88
2023-03-09T11:05:24.848Z,97534.97
2023-03-09T11:07:58.626Z,97546.78
2023-03-09T11:10:29.215Z,97533.31
2023-03-09T11:12:58.622Z,97536.28
2023-03-09T11:15:33.266Z,97522.13
2023-03-09T11:18:02.766Z,97503.38
2023-03-09T11:20:35.077Z,97477.06
2023-03-09T11:23:34.179Z,97503.72
2023-03-09T11:26:12.270Z,97519.00
2023-03-09T11:29:15.798Z,97523.00
2023-03-09T11:31:44.333Z,97523.25
2023-03-09T11:34:33.077Z,97524.19
2023-03-09T11:37:14.628Z,97523.31
2023-03-09T11:40:22.738Z,97542.94
2023-03-09T11:43:00.052Z,97537.97
2023-03-09T11:45:31.201Z,97532.88
2023-03-09T11:48:00.962Z,97526.25
2023-03-09T11:50:35.697Z,97513.38
2023-03-09T11:53:15.586Z,97514.72
2023-03-09T11:55:48.061Z,97522.75
2023-03-09T11:58:23.880Z,97533.34
2023-03-09T12:00:58.287Z,97541.34
2023-03-09T12:03:28.579Z,97536.47
2023-03-09T12:06:01.514Z,97541.31
2023-03-09T12:08:42.934Z,97530.47
2023-03-09T12:11:39.033Z,97541.13
2023-03-09T12:14:36.574Z,97537.09
2023-03-09T12:17:16.062Z,97536.13
2023-03-09T12:19:49.928Z,97510.19
2023-03-09T12:22:34.818Z,97524.97
2023-03-09T12:25:17.769Z,97496.09
2023-03-09T12:27:54.991Z,97534.78
2023-03-09T12:30:31.520Z,97529.78
2023-03-09T12:33:01.980Z,97517.19
2023-03-09T12:35:28.738Z,97518.72
2023-03-09T12:38:15.477Z,97529.31
2023-03-09T12:40:43.057Z,97527.59
2023-03-09T12:43:15.933Z,97529.31
2023-03-09T12:45:45.975Z,97522.94
2023-03-09T12:48:25.718Z,97541.84
2023-03-09T12:51:03.232Z,97556.63
2023-03-09T12:53:35.217Z,97526.25
2023-03-09T12:56:15.793Z,97533.78
2023-03-09T12:58:48.840Z,97517.75
2023-03-09T13:01:18.525Z,97554.03
2023-03-09T13:03:49.618Z,97540.72
2023-03-09T13:06:46.975Z,97542.56
2023-03-09T13:09:18.737Z,97548.13
2023-03-09T13:11:57.726Z,97549.22
2023-03-09T13:14:27.363Z,97554.13
2023-03-09T13:17:05.151Z,97539.63
2023-03-09T13:19:50.567Z,97540.19
2023-03-09T13:22:21.866Z,97543.50
2023-03-09T13:24:56.578Z,97533.84
2023-03-09T13:27:30.665Z,97534.91
2023-03-09T13:30:25.539Z,97537.25
2023-03-09T13:33:01.208Z,97540.59
2023-03-09T13:35:40.036Z,97528.88
2023-03-09T13:38:18.144Z,97520.19
2023-03-09T13:40:52.885Z,97506.63
2023-03-09T13:43:25.181Z,97522.69
2023-03-09T13:46:07.386Z,97504.00
2023-03-09T13:48:43.113Z,97509.56
2023-03-09T13:51:28.504Z,97526.25
2023-03-09T13:53:55.348Z,97499.16
2023-03-09T13:56:22.180Z,97496.19
2023-03-09T13:58:50.438Z,97504.13
2023-03-09T14:01:25.593Z,97518.91
2023-03-09T14:03:56.678Z,97534.75
2023-03-09T14:09:34.130Z,97531.47
2023-03-09T14:12:02.227Z,97500.50
2023-03-09T14:14:29.639Z,97507.97
2023-03-09T14:16:57.139Z,97526.31
2023-03-09T14:19:33.211Z,97532.84
2023-03-09T14:22:01.169Z,97508.94
2023-03-09T14:24:36.240Z,97496.53
2023-03-09T14:27:35.113Z,97506.91
2023-03-09T14:30:44.926Z,97476.75
2023-03-09T14:33:30.165Z,97499.03
2023-03-09T14:36:29.343Z,97491.50
2023-03-09T14:39:01.419Z,97512.94
2023-03-09T14:41:31.180Z,97506.53
2023-03-09T14:43:58.785Z,97497.56
2023-03-09T14:46:29.066Z,97474.44
2023-03-09T14:49:00.096Z,97464.47
2023-03-09T14:51:30.512Z,97478.94
2023-03-09T14:54:09.095Z,97497.56
2023-03-09T14:56:36.377Z,97503.56
2023-03-09T14:59:13.676Z,97504.63
2023-03-09T15:01:58.260Z,97512.16
2023-03-09T15:04:25.462Z,97506.78
2023-03-09T15:06:52.801Z,97491.06
2023-03-09T15:09:20.564Z,97497.09
2023-03-09T15:11:48.356Z,97497.00
2023-03-09T15:14:29.691Z,97503.44
2023-03-09T15:16:57.914Z,97481.16
2023-03-09T15:19:25.708Z,97485.72
2023-03-09T15:22:00.107Z,97489.56
2023-03-09T15:24:29.205Z,97492.34
2023-03-09T15:26:58.821Z,97498.09
2023-03-09T15:29:26.031Z,97487.13
2023-03-09T15:31:53.033Z,97486.84
2023-03-09T15:34:19.930Z,97456.09
2023-03-09T15:36:46.775Z,97486.28
2023-03-09T15:39:13.773Z,97474.53
2023-03-09T15:41:40.629Z,97485.78
2023-03-09T15:44:07.565Z,97492.06
2023-03-09T15:46:34.475Z,97489.88
2023-03-09T15:49:08.430Z,97498.66
2023-03-09T15:51:36.659Z,97451.84
2023-03-09T15:54:05.090Z,97478.41
2023-03-09T15:56:32.556Z,97458.34
2023-03-09T15:58:59.654Z,97468.22
2023-03-09T16:01:28.137Z,97472.06
2023-03-09T16:03:55.179Z,97455.31
2023-03-09T16:06:23.681Z,97437.75
2023-03-09T16:08:51.835Z,97449.41
2023-03-09T16:11:20.343Z,97448.44
2023-03-09T16:13:47.639Z,97438.56
2023-03-09T16:16:16.028Z,97428.44
2023-03-09T16:18:43.521Z,97439.66
2023-03-09T16:21:10.669Z,97440.72
2023-03-09T16:23:37.729Z,97445.06
2023-03-09T16:26:04.678Z,97435.78
2023-03-09T16:28:31.636Z,97430.59
2023-03-09T16:30:58.883Z,97430.16
2023-03-09T16:33:25.834Z,97426.72
2023-03-09T16:36:00.726Z,97443.72
2023-03-09T16:38:28.219Z,97432.16
2023-03-09T16:40:55.137Z,97431.47
2023-03-09T16:43:22.187Z,97431.34
2023-03-09T16:45:57.246Z,97428.44
2023-03-09T16:48:26.434Z,97428.44
2023-03-09T16:50:59.004Z,97416.91
2023-03-09T16:53:27.869Z,97418.09
2023-03-09T16:56:01.340Z,97421.78
2023-03-09T16:58:29.309Z,97421.22
2023-03-09T17:00:56.702Z,97399.13
2023-03-09T17:03:23.700Z,97401.72
2023-03-09T17:05:51.273Z,97410.84
2023-03-09T17:08:18.671Z,97397.97
2023-03-09T17:10:48.635Z,97391.94
2023-03-09T17:13:15.896Z,97382.13
2023-03-09T17:15:43.399Z,97387.56
2023-03-09T17:18:10.436Z,97348.84
2023-03-09T17:20:37.532Z,97392.66
2023-03-09T17:23:04.416Z,97388.50
2023-03-09T17:25:31.560Z,97364.31
2023-03-09T17:27:59.564Z,97388.91
2023-03-09T17:30:39.585Z,97384.91
2023-03-09T17:33:11.964Z,97387.19
2023-03-09T17:35:40.272Z,97379.06
2023-03-09T17:38:11.514Z,97360.56
2023-03-09T17:40:47.092Z,97375.72
2023-03-09T17:43:14.749Z,97390.44
2023-03-09T17:45:42.690Z,97375.75
2023-03-09T17:48:10.139Z,97365.31
2023-03-09T17:50:37.361Z,97389.94
2023-03-09T17:53:04.962Z,97375.56
2023-03-09T17:55:32.404Z,97385.31
2023-03-09T17:57:59.284Z,97372.03
2023-03-09T18:00:26.364Z,97364.00
2023-03-09T18:02:53.272Z,97373.69
2023-03-09T18:05:20.226Z,97376.72
2023-03-09T18:07:47.398Z,97371.59
2023-03-09T18:10:14.734Z,97364.16
2023-03-09T18:12:42.545Z,97360.34
2023-03-09T18:15:10.470Z,97358.91
2023-03-09T18:17:37.324Z,97359.47
2023-03-09T18:20:05.259Z,97352.03
2023-03-09T18:22:32.175Z,97353.13
2023-03-09T18:24:59.571Z,97353.38
2023-03-09T18:27:26.490Z,97350.91
2023-03-09T18:29:53.392Z,97343.59
2023-03-09T18:32:21.016Z,97331.25
2023-03-09T18:34:48.070Z,97329.41
2023-03-09T18:37:15.711Z,97348.16
2023-03-09T18:39:42.854Z,97340.53
2023-03-09T18:42:10.071Z,97346.97
2023-03-09T18:44:36.946Z,97330.84
2023-03-09T18:47:05.384Z,97342.75
2023-03-09T18:49:32.483Z,97331.91
2023-03-09T18:51:59.603Z,97299.41
2023-03-09T18:54:26.830Z,97323.56
2023-03-09T18:56:53.766Z,97302.72
2023-03-09T18:59:20.698Z,97306.94
2023-03-09T19:01:47.754Z,97315.78
2023-03-09T19:04:15.750Z,97327.00
2023-03-09T19:06:42.702Z,97319.47
2023-03-09T19:09:09.628Z,97326.28
2023-03-09T19:11:39.012Z,97306.28
2023-03-09T19:14:06.114Z,97301.56
2023-03-09T19:16:33.462Z,97301.56
2023-03-09T19:19:00.315Z,97308.16
2023-03-09T19:21:28.709Z,97307.22
2023-03-09T19:23:57.714Z,97289.09
2023-03-09T19:26:25.524Z,97303.94
2023-03-09T19:28:52.787Z,97275.19
2023-03-09T19:31:25.257Z,97294.38
2023-03-09T19:33:52.378Z,97288.16
2023-03-09T19:36:25.600Z,97285.06
2023-03-09T19:38:54.432Z,97286.50
2023-03-09T19:41:27.123Z,97284.09
2023-03-09T19:43:55.525Z,97278.94
2023-03-09T19:46:28.585Z,97278.69
2023-03-09T19:48:56.775Z,97258.06
2023-03-09T19:51:27.785Z,97251.16
2023-03-09T19:53:58.296Z,97281.19
2023-03-09T19:56:32.390Z,97278.00
2023-03-09T19:59:01.080Z,97286.69
2023-03-09T20:01:30.217Z,97273.88
2023-03-09T20:04:00.935Z,97265.28
2023-03-09T20:06:28.031Z,97270.44
2023-03-09T20:08:59.013Z,97270.44
2023-03-09T20:11:26.113Z,97272.44
2023-03-09T20:13:56.587Z,97261.38
2023-03-09T20:16:27.131Z,97271.13
2023-03-09T20:18:57.998Z,97268.66
2023-03-09T20:21:25.893Z,97249.69
2023-03-09T20:23:52.781Z,97248.75
2023-03-09T20:26:28.013Z,97259.13
2023-03-09T20:28:56.253Z,97255.59
2023-03-09T20:31:33.324Z,97260.78
2023-03-09T20:34:02.877Z,97255.94
2023-03-09T20:36:32.789Z,97245.22
2023-03-09T20:39:00.544Z,97257.81
2023-03-09T20:41:29.017Z,97256.16
2023-03-09T20:43:57.546Z,97256.28
2023-03-09T20:46:25.266Z,97253.69
2023-03-09T20:48:54.545Z,97236.03
2023-03-09T20:51:23.192Z,97232.16
2023-03-09T20:53:50.519Z,97241.69
2023-03-09T20:56:21.437Z,97228.00
2023-03-09T20:58:48.705Z,97234.81
2023-03-09T21:01:19.918Z,97247.81
2023-03-09T21:03:46.960Z,97236.94
2023-03-09T21:06:14.730Z,97220.88
2023-03-09T21:08:42.158Z,97222.56
2023-03-09T21:11:12.191Z,97230.31
2023-03-09T21:13:41.059Z,97222.56
2023-03-09T21:16:16.476Z,97224.13
2023-03-09T21:18:43.500Z,97226.69
2023-03-09T21:21:10.386Z,97205.16
2023-03-09T21:23:37.766Z,97219.00
2023-03-09T21:26:14.754Z,97213.53
2023-03-09T21:28:42.406Z,97216.91
2023-03-09T21:31:21.412Z,97214.53
2023-03-09T21:33:48.302Z,97210.16
2023-03-09T21:36:16.552Z,97179.59
2023-03-09T21:38:45.031Z,97183.09
2023-03-09T21:41:13.002Z,97190.19
2023-03-09T21:43:39.970Z,97168.78
2023-03-09T21:46:07.805Z,97161.81
2023-03-09T21:48:43.654Z,97171.84
2023-03-09T21:51:13.866Z,97172.09
2023-03-09T21:53:41.188Z,97176.44
2023-03-09T21:56:09.003Z,97162.09
2023-03-09T21:58:35.930Z,97167.50
2023-03-09T22:01:17.109Z,97166.13
2023-03-09T22:03:44.891Z,97164.97
2023-03-09T22:06:27.596Z,97158.59
2023-03-09T22:08:56.867Z,97162.84
2023-03-09T22:11:25.466Z,97163.31
2023-03-09T22:13:52.502Z,97148.00
2023-03-09T22:16:27.585Z,97162.25
2023-03-09T22:18:56.332Z,97146.38
2023-03-09T22:21:24.459Z,97150.38
2023-03-09T22:23:51.530Z,97137.91
2023-03-09T22:26:19.404Z,97147.91
2023-03-09T22:28:46.733Z,97125.19
2023-03-09T22:31:16.334Z,97134.38
2023-03-09T22:33:44.691Z,97144.03
2023-03-09T22:36:18.368Z,97143.09
2023-03-09T22:38:45.889Z,97142.38
2023-03-09T22:41:16.877Z,97151.09
2023-03-09T22:43:46.330Z,97135.66
2023-03-09T22:46:17.541Z,97122.84
2023-03-09T22:48:45.123Z,97127.06
2023-03-09T22:51:16.310Z,97116.38
2023-03-09T22:53:45.470Z,97116.38
2023-03-09T22:56:13.170Z,97110.59
2023-03-09T22:58:40.786Z,97107.75
2023-03-09T23:01:25.944Z,97090.59
2023-03-09T23:03:55.046Z,97105.75
2023-03-09T23:06:23.424Z,97081.41
2023-03-09T23:08:50.780Z,97105.16
2023-03-09T23:11:33.850Z,97104.19
2023-03-09T23:14:00.878Z,97081.84
2023-03-09T23:16:27.803Z,97077.50
2023-03-09T23:18:54.669Z,97071.47
2023-03-09T23:21:22.615Z,97063.50
2023-03-09T23:23:52.079Z,97083.72
2023-03-09T23:26:21.707Z,97086.06
2023-03-09T23:28:49.412Z,97065.81
2023-03-09T23:31:16.703Z,97074.25
2023-03-09T23:33:44.093Z,97079.00
2023-03-09T23:36:12.441Z,97079.13
2023-03-09T23:38:39.430Z,97081.06
2023-03-09T23:41:11.375Z,97066.25
2023-03-09T23:43:39.023Z,97057.84
2023-03-09T23:46:13.317Z,97044.94
2023-03-09T23:48:40.522Z,97030.69
2023-03-09T23:51:10.704Z,97047.03
2023-03-09T23:53:38.400Z,97028.09
2023-03-09T23:56:12.042Z,97025.63
2023-03-09T23:58:45.380Z,97032.75
